createdAt,value
2019-02-23T00:00:53.528Z,7.40
2019-02-23T00:03:22.355Z,7.40
2019-02-23T00:05:51.187Z,7.40
2019-02-23T00:08:20.128Z,7.50
2019-02-23T00:10:48.954Z,7.50
2019-02-23T00:13:17.884Z,7.50
2019-02-23T00:15:47.118Z,7.40
2019-02-23T00:18:16.106Z,7.40
2019-02-23T00:20:45.112Z,7.40
2019-02-23T00:23:14.110Z,7.40
2019-02-23T00:25:43.021Z,7.40
2019-02-23T00:28:12.143Z,7.30
2019-02-23T00:30:41.662Z,7.30
2019-02-23T00:33:10.820Z,7.30
2019-02-23T00:35:39.918Z,7.30
2019-02-23T00:38:08.814Z,7.20
2019-02-23T00:40:38.253Z,7.20
2019-02-23T00:43:07.107Z,7.20
2019-02-23T00:45:36.564Z,7.20
2019-02-23T00:48:05.939Z,7.20
2019-02-23T00:50:34.851Z,7.20
2019-02-23T00:53:03.893Z,7.10
2019-02-23T00:55:32.788Z,7.10
2019-02-23T00:58:01.721Z,7.00
2019-02-23T01:00:30.706Z,7.00
2019-02-23T01:02:59.743Z,7.00
2019-02-23T01:05:28.736Z,7.00
2019-02-23T01:08:03.868Z,7.00
2019-02-23T01:10:32.864Z,7.00
2019-02-23T01:13:01.815Z,6.90
2019-02-23T01:15:30.724Z,6.90
2019-02-23T01:17:59.591Z,6.90
2019-02-23T01:20:28.590Z,6.90
2019-02-23T01:22:57.591Z,6.80
2019-02-23T01:25:26.738Z,6.80
2019-02-23T01:27:55.845Z,6.80
2019-02-23T01:30:25.047Z,6.70
2019-02-23T01:32:54.257Z,6.70
2019-02-23T01:35:23.365Z,6.70
2019-02-23T01:37:52.326Z,6.70
2019-02-23T01:40:21.403Z,6.60
2019-02-23T01:42:50.374Z,6.60
2019-02-23T01:45:19.417Z,6.60
2019-02-23T01:47:48.427Z,6.50
2019-02-23T01:50:17.480Z,6.50
2019-02-23T01:52:46.526Z,6.40
2019-02-23T01:55:15.363Z,6.40
2019-02-23T01:57:44.406Z,6.30
2019-02-23T02:00:15.312Z,6.20
2019-02-23T02:02:45.323Z,6.20
2019-02-23T02:05:14.399Z,6.20
2019-02-23T02:07:43.382Z,6.10
2019-02-23T02:10:12.403Z,6.10
2019-02-23T02:12:41.538Z,6.10
2019-02-23T02:15:12.725Z,6.00
2019-02-23T02:17:41.734Z,6.00
2019-02-23T02:20:11.679Z,5.90
2019-02-23T02:22:40.875Z,5.90
2019-02-23T02:25:10.231Z,5.90
2019-02-23T02:27:39.316Z,5.90
2019-02-23T02:30:10.546Z,5.80
2019-02-23T02:32:39.832Z,5.80
2019-02-23T02:35:10.073Z,5.90
2019-02-23T02:37:39.203Z,5.80
2019-02-23T02:40:09.007Z,5.90
2019-02-23T02:42:37.972Z,5.90
2019-02-23T02:45:08.464Z,5.90
2019-02-23T02:47:37.327Z,5.90
2019-02-23T02:50:07.079Z,5.90
2019-02-23T02:52:35.961Z,6.00
2019-02-23T02:55:05.043Z,6.00
2019-02-23T02:57:33.873Z,6.00
2019-02-23T03:00:02.811Z,6.00
2019-02-23T03:02:31.636Z,6.00
2019-02-23T03:05:00.584Z,6.00
2019-02-23T03:07:29.589Z,5.90
2019-02-23T03:09:58.459Z,5.90
2019-02-23T03:12:27.412Z,5.90
2019-02-23T03:14:56.357Z,5.90
2019-02-23T03:17:25.272Z,5.90
2019-02-23T03:19:54.239Z,5.90
2019-02-23T03:22:23.158Z,5.90
2019-02-23T03:24:52.092Z,5.80
2019-02-23T03:27:20.973Z,5.80
2019-02-23T03:29:49.962Z,5.80
2019-02-23T03:32:18.825Z,5.80
2019-02-23T03:34:47.698Z,5.80
2019-02-23T03:37:16.529Z,5.80
2019-02-23T03:39:45.394Z,5.80
2019-02-23T03:42:14.531Z,5.80
2019-02-23T03:44:43.390Z,5.80
2019-02-23T03:47:12.298Z,5.80
2019-02-23T03:49:41.180Z,5.70
2019-02-23T03:52:10.248Z,5.70
2019-02-23T03:54:39.174Z,5.70
2019-02-23T03:57:08.114Z,5.60
2019-02-23T03:59:37.111Z,5.60
2019-02-23T04:02:06.159Z,5.60
2019-02-23T04:04:35.099Z,5.70
2019-02-23T04:07:04.056Z,5.70
2019-02-23T04:09:33.030Z,5.60
2019-02-23T04:12:01.891Z,5.60
2019-02-23T04:14:34.042Z,5.50
2019-02-23T04:17:03.037Z,5.50
2019-02-23T04:19:31.995Z,5.50
2019-02-23T04:22:00.962Z,5.50
2019-02-23T04:24:29.986Z,5.50
2019-02-23T04:26:59.704Z,5.50
2019-02-23T04:29:34.426Z,5.60
2019-02-23T04:32:22.574Z,5.60
2019-02-23T04:34:51.536Z,5.60
2019-02-23T04:37:20.441Z,5.70
2019-02-23T04:39:49.368Z,5.70
2019-02-23T04:42:18.281Z,5.80
2019-02-23T04:44:47.175Z,5.80
2019-02-23T04:47:16.165Z,5.80
2019-02-23T04:49:52.879Z,5.80
2019-02-23T04:52:21.897Z,5.80
2019-02-23T04:54:50.867Z,5.80
2019-02-23T04:57:19.785Z,5.80
2019-02-23T04:59:48.715Z,5.70
2019-02-23T05:02:17.737Z,5.80
2019-02-23T05:04:46.807Z,5.80
2019-02-23T05:07:15.655Z,5.90
2019-02-23T05:09:44.563Z,5.90
2019-02-23T05:12:13.483Z,5.90
2019-02-23T05:14:42.432Z,6.00
2019-02-23T05:17:11.280Z,6.00
2019-02-23T05:19:40.249Z,6.00
2019-02-23T05:22:09.267Z,6.00
2019-02-23T05:24:38.174Z,6.00
2019-02-23T05:27:07.185Z,6.00
2019-02-23T05:29:36.135Z,6.00
2019-02-23T05:32:05.034Z,6.00
2019-02-23T05:34:34.263Z,6.00
2019-02-23T05:37:03.153Z,6.00
2019-02-23T05:39:32.273Z,6.00
2019-02-23T05:42:01.222Z,5.90
2019-02-23T05:44:30.105Z,5.90
2019-02-23T05:46:59.038Z,6.00
2019-02-23T05:49:29.019Z,5.90
2019-02-23T05:51:57.999Z,6.00
2019-02-23T05:54:26.954Z,5.90
2019-02-23T05:56:56.063Z,5.90
2019-02-23T05:59:24.961Z,6.00
2019-02-23T06:01:53.846Z,6.00
2019-02-23T06:04:22.808Z,5.90
2019-02-23T06:06:52.117Z,5.90
2019-02-23T06:09:21.063Z,5.80
2019-02-23T06:11:49.978Z,5.80
2019-02-23T06:16:53.280Z,5.70
2019-02-23T06:19:22.523Z,5.70
2019-02-23T06:21:54.147Z,5.70
2019-02-23T06:24:22.178Z,5.70
2019-02-23T06:26:51.257Z,5.70
2019-02-23T06:29:20.379Z,5.70
2019-02-23T06:31:49.468Z,5.70
2019-02-23T06:36:53.232Z,5.70
2019-02-23T06:39:22.757Z,5.60
2019-02-23T06:41:51.728Z,5.50
2019-02-23T06:44:20.623Z,5.50
2019-02-23T06:46:49.507Z,5.50
2019-02-23T06:49:18.399Z,5.40
2019-02-23T06:51:47.275Z,5.50
2019-02-23T06:54:16.128Z,5.60
2019-02-23T06:56:45.995Z,5.60
2019-02-23T06:59:14.894Z,5.60
2019-02-23T07:01:44.156Z,5.60
2019-02-23T07:04:13.052Z,5.50
2019-02-23T07:06:42.371Z,5.50
2019-02-23T07:09:11.301Z,5.50
2019-02-23T07:11:40.119Z,5.50
2019-02-23T07:14:09.486Z,5.40
2019-02-23T07:16:38.399Z,5.50
2019-02-23T07:19:07.253Z,5.40
2019-02-23T07:24:10.856Z,5.40
2019-02-23T07:26:39.909Z,5.40
2019-02-23T07:29:09.007Z,5.30
2019-02-23T07:31:37.972Z,5.40
2019-02-23T07:34:07.140Z,5.30
2019-02-23T07:36:36.123Z,5.30
2019-02-23T07:39:06.335Z,5.40
2019-02-23T07:41:35.280Z,5.40
2019-02-23T07:44:05.667Z,5.40
2019-02-23T07:46:35.061Z,5.50
2019-02-23T07:49:04.093Z,5.50
2019-02-23T07:51:33.011Z,5.50
2019-02-23T07:54:01.990Z,5.40
2019-02-23T07:56:30.954Z,5.50
2019-02-23T07:59:00.078Z,5.50
2019-02-23T08:01:29.011Z,5.50
2019-02-23T08:03:58.010Z,5.50
2019-02-23T08:06:27.064Z,5.50
2019-02-23T08:08:55.988Z,5.50
2019-02-23T08:11:24.894Z,5.50
2019-02-23T08:16:28.602Z,5.60
2019-02-23T08:18:59.187Z,5.60
2019-02-23T08:21:32.530Z,5.60
2019-02-23T08:24:01.481Z,5.60
2019-02-23T08:26:30.648Z,5.60
2019-02-23T08:28:59.599Z,5.60
2019-02-23T08:31:28.533Z,5.60
2019-02-23T08:33:57.512Z,5.60
2019-02-23T08:36:26.874Z,5.60
2019-02-23T08:38:55.850Z,5.70
2019-02-23T08:41:24.962Z,5.70
2019-02-23T08:43:54.912Z,5.70
2019-02-23T08:46:23.902Z,5.80
2019-02-23T08:48:52.799Z,5.80
2019-02-23T08:53:56.670Z,5.90
2019-02-23T08:56:25.594Z,5.90
2019-02-23T08:58:54.546Z,6.00
2019-02-23T09:01:23.565Z,6.00
2019-02-23T09:03:52.511Z,6.10
2019-02-23T09:06:24.450Z,6.10
2019-02-23T09:08:53.543Z,6.00
2019-02-23T09:11:22.613Z,6.10
2019-02-23T09:13:51.721Z,6.20
2019-02-23T09:16:20.623Z,6.20
2019-02-23T09:18:49.793Z,6.30
2019-02-23T09:21:18.832Z,6.30
2019-02-23T09:23:47.923Z,6.40
2019-02-23T09:26:16.929Z,6.40
2019-02-23T09:28:45.855Z,6.60
2019-02-23T09:31:14.770Z,6.50
2019-02-23T09:33:43.891Z,6.60
2019-02-23T09:36:12.875Z,6.60
2019-02-23T09:38:41.949Z,6.70
2019-02-23T09:41:11.244Z,6.60
2019-02-23T09:43:40.221Z,6.80
2019-02-23T09:46:09.323Z,6.70
2019-02-23T09:48:38.159Z,6.80
2019-02-23T09:51:07.348Z,6.80
2019-02-23T09:56:11.190Z,7.00
2019-02-23T09:58:40.135Z,7.10
2019-02-23T10:01:09.141Z,7.10
2019-02-23T10:03:38.102Z,7.20
2019-02-23T10:06:07.132Z,7.30
2019-02-23T10:08:35.987Z,7.30
2019-02-23T10:11:05.036Z,7.40
2019-02-23T10:13:34.574Z,7.40
2019-02-23T10:16:03.619Z,7.30
2019-02-23T10:18:32.699Z,7.40
2019-02-23T10:21:01.508Z,7.60
2019-02-23T10:23:30.417Z,7.80
2019-02-23T10:25:59.414Z,7.90
2019-02-23T10:28:28.376Z,7.90
2019-02-23T10:30:57.284Z,8.00
2019-02-23T10:33:26.292Z,7.90
2019-02-23T10:35:55.261Z,7.90
2019-02-23T10:38:24.239Z,8.00
2019-02-23T10:40:53.181Z,8.10
2019-02-23T10:43:23.047Z,8.30
2019-02-23T10:45:52.035Z,8.40
2019-02-23T10:48:21.045Z,8.40
2019-02-23T10:50:50.178Z,8.60
2019-02-23T10:53:19.037Z,8.60
2019-02-23T10:55:47.887Z,8.60
2019-02-23T10:58:16.915Z,8.60
2019-02-23T11:00:46.131Z,8.70
2019-02-23T11:03:15.043Z,8.70
2019-02-23T11:05:44.209Z,8.80
2019-02-23T11:08:13.555Z,8.90
2019-02-23T11:10:42.706Z,9.00
2019-02-23T11:13:11.975Z,9.10
2019-02-23T11:15:41.160Z,9.10
2019-02-23T11:18:10.168Z,9.10
2019-02-23T11:20:39.155Z,9.30
2019-02-23T11:23:08.166Z,9.30
2019-02-23T11:25:37.126Z,9.20
2019-02-23T11:28:06.523Z,9.40
2019-02-23T11:30:35.569Z,9.40
2019-02-23T11:33:04.676Z,9.50
2019-02-23T11:35:34.328Z,9.70
2019-02-23T11:38:03.730Z,9.80
2019-02-23T11:40:32.591Z,10.00
2019-02-23T11:43:01.751Z,9.70
2019-02-23T11:45:31.123Z,9.80
2019-02-23T11:48:00.342Z,9.90
2019-02-23T11:50:29.290Z,9.80
2019-02-23T11:52:58.262Z,9.90
2019-02-23T11:55:27.231Z,9.80
2019-02-23T11:57:56.223Z,9.70
2019-02-23T12:02:59.995Z,9.80
2019-02-23T12:05:29.046Z,9.90
2019-02-23T12:07:58.075Z,10.20
2019-02-23T12:10:27.448Z,10.30
2019-02-23T12:12:56.672Z,10.30
2019-02-23T12:15:25.532Z,10.40
2019-02-23T12:17:54.618Z,10.50
2019-02-23T12:20:23.597Z,10.60
2019-02-23T12:22:52.459Z,10.70
2019-02-23T12:25:21.399Z,10.80
2019-02-23T12:27:50.341Z,10.80
2019-02-23T12:30:19.627Z,10.70
2019-02-23T12:32:48.537Z,10.70
2019-02-23T12:35:17.717Z,10.90
2019-02-23T12:37:47.103Z,11.00
2019-02-23T12:40:16.098Z,11.10
2019-02-23T12:42:45.488Z,11.40
2019-02-23T12:45:14.892Z,11.10
2019-02-23T12:47:45.110Z,11.10
2019-02-23T12:50:14.167Z,11.10
2019-02-23T12:52:43.067Z,11.10
2019-02-23T12:55:12.557Z,11.20
2019-02-23T12:57:41.486Z,11.40
2019-02-23T13:00:11.536Z,11.40
2019-02-23T13:02:40.519Z,11.40
2019-02-23T13:05:09.914Z,11.50
2019-02-23T13:07:38.938Z,11.40
2019-02-23T13:10:11.291Z,11.30
2019-02-23T13:13:18.764Z,11.20
2019-02-23T13:16:31.865Z,11.10
2019-02-23T13:19:40.551Z,11.20
2019-02-23T13:22:48.701Z,11.30
2019-02-23T13:26:08.310Z,11.30
2019-02-23T13:28:50.224Z,11.30
2019-02-23T13:31:48.893Z,11.00
2019-02-23T13:34:57.739Z,11.10
2019-02-23T13:37:57.099Z,11.20
2019-02-23T13:41:34.875Z,11.20
2019-02-23T13:45:03.045Z,11.40
2019-02-23T13:48:14.709Z,11.60
2019-02-23T13:51:03.994Z,11.40
2019-02-23T13:54:19.708Z,11.40
2019-02-23T13:57:14.742Z,11.60
2019-02-23T13:59:52.998Z,11.70
2019-02-23T14:02:43.107Z,11.60
2019-02-23T14:05:51.036Z,11.50
2019-02-23T14:08:47.988Z,11.30
2019-02-23T14:11:54.069Z,11.50
2019-02-23T14:14:39.672Z,11.50
2019-02-23T14:17:39.383Z,11.60
2019-02-23T14:20:48.803Z,11.60
2019-02-23T14:23:58.013Z,11.30
2019-02-23T14:26:52.019Z,11.40
2019-02-23T14:29:50.760Z,11.40
2019-02-23T14:32:39.029Z,11.40
2019-02-23T14:35:27.545Z,11.40
2019-02-23T14:38:53.171Z,11.60
2019-02-23T14:41:54.708Z,11.60
2019-02-23T14:44:41.186Z,11.70
2019-02-23T14:47:33.072Z,11.70
2019-02-23T14:50:43.696Z,11.60
2019-02-23T14:53:49.201Z,11.70
2019-02-23T14:56:43.797Z,11.50
2019-02-23T15:03:02.288Z,11.30
2019-02-23T15:05:55.507Z,11.30
2019-02-23T15:08:40.467Z,11.40
2019-02-23T15:11:40.091Z,11.30
2019-02-23T15:14:42.863Z,11.20
2019-02-23T15:17:59.780Z,11.20
2019-02-23T15:20:55.956Z,11.20
2019-02-23T15:23:57.159Z,11.20
2019-02-23T15:26:58.497Z,11.20
2019-02-23T15:29:39.106Z,11.10
2019-02-23T15:33:01.598Z,11.10
2019-02-23T15:36:00.348Z,11.20
2019-02-23T15:39:15.390Z,11.10
2019-02-23T15:42:24.816Z,11.00
2019-02-23T15:45:41.379Z,10.90
2019-02-23T15:48:27.414Z,10.80
2019-02-23T15:50:56.433Z,10.90
2019-02-23T15:53:25.310Z,10.80
2019-02-23T15:55:55.231Z,10.80
2019-02-23T15:58:24.190Z,10.70
2019-02-23T16:00:53.813Z,10.70
2019-02-23T16:03:23.243Z,10.60
2019-02-23T16:05:52.316Z,10.50
2019-02-23T16:08:21.140Z,10.50
2019-02-23T16:10:49.989Z,10.40
2019-02-23T16:13:20.531Z,10.40
2019-02-23T16:15:49.544Z,10.30
2019-02-23T16:18:18.607Z,10.20
2019-02-23T16:20:47.635Z,10.20
2019-02-23T16:23:16.599Z,10.10
2019-02-23T16:25:45.494Z,10.00
2019-02-23T16:28:14.587Z,9.90
2019-02-23T16:30:43.473Z,9.90
2019-02-23T16:33:12.521Z,9.80
2019-02-23T16:35:41.683Z,9.80
2019-02-23T16:38:10.931Z,9.80
2019-02-23T16:40:40.599Z,9.70
2019-02-23T16:43:09.447Z,9.70
2019-02-23T16:45:38.427Z,9.70
2019-02-23T16:48:07.447Z,9.60
2019-02-23T16:50:36.347Z,9.70
2019-02-23T16:53:06.385Z,9.60
2019-02-23T16:55:35.545Z,9.60
2019-02-23T16:58:04.767Z,9.50
2019-02-23T17:00:33.740Z,9.40
2019-02-23T17:03:02.698Z,9.30
2019-02-23T17:05:31.939Z,9.20
2019-02-23T17:08:00.910Z,9.10
2019-02-23T17:10:30.046Z,9.00
2019-02-23T17:12:59.167Z,8.90
2019-02-23T17:15:47.542Z,8.90
2019-02-23T17:18:16.521Z,8.80
2019-02-23T17:20:45.550Z,8.80
2019-02-23T17:23:14.371Z,8.80
2019-02-23T17:25:44.204Z,8.70
2019-02-23T17:28:13.351Z,8.70
2019-02-23T17:30:42.474Z,8.70
2019-02-23T17:33:11.444Z,8.70
2019-02-23T17:35:40.551Z,8.50
2019-02-23T17:38:16.107Z,8.60
2019-02-23T17:40:40.475Z,8.60
2019-02-23T17:43:09.566Z,8.60
2019-02-23T17:45:38.463Z,8.70
2019-02-23T17:48:07.665Z,8.60
2019-02-23T17:50:36.617Z,8.60
2019-02-23T17:53:06.147Z,8.60
2019-02-23T17:55:34.984Z,8.50
2019-02-23T17:58:04.467Z,8.40
2019-02-23T18:00:33.291Z,8.40
2019-02-23T18:03:02.432Z,8.30
2019-02-23T18:05:31.389Z,8.30
2019-02-23T18:08:00.429Z,8.30
2019-02-23T18:10:29.528Z,8.20
2019-02-23T18:12:58.340Z,8.10
2019-02-23T18:15:27.262Z,8.10
2019-02-23T18:17:56.704Z,8.10
2019-02-23T18:20:25.855Z,8.10
2019-02-23T18:22:57.486Z,8.10
2019-02-23T18:25:27.007Z,8.10
2019-02-23T18:27:56.020Z,8.00
2019-02-23T18:30:25.219Z,8.10
2019-02-23T18:32:54.485Z,8.10
2019-02-23T18:35:23.608Z,8.10
2019-02-23T18:37:52.765Z,8.10
2019-02-23T18:40:22.014Z,8.00
2019-02-23T18:42:53.925Z,8.00
2019-02-23T18:45:23.417Z,7.90
2019-02-23T18:47:56.302Z,7.90
2019-02-23T18:50:27.308Z,7.80
2019-02-23T18:52:56.452Z,7.80
2019-02-23T18:55:25.945Z,7.80
2019-02-23T18:57:56.181Z,7.70
2019-02-23T19:00:25.304Z,7.70
2019-02-23T19:02:55.799Z,7.60
2019-02-23T19:05:49.681Z,7.60
2019-02-23T19:08:14.820Z,7.60
2019-02-23T19:10:44.271Z,7.60
2019-02-23T19:13:13.103Z,7.50
2019-02-23T19:15:41.978Z,7.50
2019-02-23T19:18:11.199Z,7.50
2019-02-23T19:20:40.384Z,7.50
2019-02-23T19:23:09.338Z,7.40
2019-02-23T19:25:38.544Z,7.40
2019-02-23T19:28:07.399Z,7.40
2019-02-23T19:30:36.587Z,7.30
2019-02-23T19:33:05.619Z,7.20
2019-02-23T19:35:34.864Z,7.20
2019-02-23T19:38:03.983Z,7.20
2019-02-23T19:40:33.475Z,7.10
2019-02-23T19:43:03.030Z,7.10
2019-02-23T19:45:32.050Z,7.10
2019-02-23T19:48:01.167Z,7.10
2019-02-23T19:50:34.016Z,7.10
2019-02-23T19:53:02.830Z,7.00
2019-02-23T19:55:31.892Z,7.00
2019-02-23T19:58:01.524Z,6.90
2019-02-23T20:00:30.778Z,6.90
2019-02-23T20:03:00.002Z,6.90
2019-02-23T20:05:29.286Z,6.80
2019-02-23T20:07:58.148Z,6.80
2019-02-23T20:10:27.281Z,6.80
2019-02-23T20:12:56.579Z,6.80
2019-02-23T20:15:25.476Z,6.80
2019-02-23T20:17:54.562Z,6.70
2019-02-23T20:20:23.699Z,6.70
2019-02-23T20:22:53.066Z,6.70
2019-02-23T20:25:21.981Z,6.60
2019-02-23T20:27:51.037Z,6.60
2019-02-23T20:30:19.891Z,6.60
2019-02-23T20:32:49.302Z,6.60
2019-02-23T20:35:18.337Z,6.50
2019-02-23T20:37:47.294Z,6.50
2019-02-23T20:40:16.655Z,6.40
2019-02-23T20:42:45.636Z,6.50
2019-02-23T20:45:14.660Z,6.50
2019-02-23T20:47:44.778Z,6.50
2019-02-23T20:50:13.722Z,6.40
2019-02-23T20:52:42.618Z,6.40
2019-02-23T20:55:11.820Z,6.40
2019-02-23T20:57:40.726Z,6.30
2019-02-23T21:00:10.005Z,6.30
2019-02-23T21:02:38.899Z,6.30
2019-02-23T21:05:08.627Z,6.20
2019-02-23T21:07:37.686Z,6.20
2019-02-23T21:10:07.063Z,6.20
2019-02-23T21:12:36.087Z,6.20
2019-02-23T21:15:06.605Z,6.10
2019-02-23T21:17:36.718Z,6.10
2019-02-23T21:20:06.195Z,6.10
2019-02-23T21:22:35.380Z,6.10
2019-02-23T21:25:04.673Z,6.10
2019-02-23T21:27:33.586Z,6.00
2019-02-23T21:30:02.579Z,6.00
2019-02-23T21:32:31.526Z,5.90
2019-02-23T21:35:00.466Z,5.90
2019-02-23T21:37:29.420Z,5.90
2019-02-23T21:39:58.419Z,5.80
2019-02-23T21:42:27.257Z,5.80
2019-02-23T21:44:57.874Z,5.90
2019-02-23T21:47:29.538Z,5.80
2019-02-23T21:49:58.355Z,5.80
2019-02-23T21:52:27.343Z,5.70
2019-02-23T21:54:56.337Z,5.70
2019-02-23T21:57:25.171Z,5.70
2019-02-23T21:59:54.124Z,5.60
2019-02-23T22:02:22.973Z,5.60
2019-02-23T22:04:51.818Z,5.60
2019-02-23T22:07:20.809Z,5.70
2019-02-23T22:09:49.754Z,5.60
2019-02-23T22:12:18.656Z,5.60
2019-02-23T22:14:47.773Z,5.70
2019-02-23T22:17:16.946Z,5.60
2019-02-23T22:19:45.744Z,5.70
2019-02-23T22:22:14.692Z,5.60
2019-02-23T22:24:43.529Z,5.60
2019-02-23T22:27:12.496Z,5.60
2019-02-23T22:29:41.357Z,5.60
2019-02-23T22:32:10.423Z,5.60
2019-02-23T22:34:39.341Z,5.50
2019-02-23T22:37:08.635Z,5.50
2019-02-23T22:39:37.565Z,5.50
2019-02-23T22:42:06.713Z,5.50
2019-02-23T22:44:35.643Z,5.50
2019-02-23T22:47:04.626Z,5.40
2019-02-23T22:49:33.444Z,5.50
2019-02-23T22:52:02.493Z,5.50
2019-02-23T22:54:31.434Z,5.50
2019-02-23T22:57:00.544Z,5.50
2019-02-23T22:59:29.727Z,5.50
2019-02-23T23:01:58.665Z,5.40
2019-02-23T23:04:27.535Z,5.40
2019-02-23T23:06:56.963Z,5.40
2019-02-23T23:09:25.808Z,5.30
2019-02-23T23:11:55.079Z,5.30
2019-02-23T23:14:23.960Z,5.30
2019-02-23T23:16:52.774Z,5.30
2019-02-23T23:19:21.786Z,5.30
2019-02-23T23:21:50.613Z,5.20
2019-02-23T23:24:19.910Z,5.20
2019-02-23T23:26:48.938Z,5.20
2019-02-23T23:29:17.923Z,5.20
2019-02-23T23:31:46.849Z,5.10
2019-02-23T23:34:15.680Z,5.20
2019-02-23T23:36:44.738Z,5.30
2019-02-23T23:39:13.582Z,5.30
2019-02-23T23:41:42.435Z,5.20
2019-02-23T23:44:11.515Z,5.20
2019-02-23T23:46:40.460Z,5.20
2019-02-23T23:49:09.300Z,5.10
2019-02-23T23:51:38.287Z,5.10
2019-02-23T23:54:07.268Z,5.10
2019-02-23T23:56:36.248Z,5.10
2019-02-23T23:59:05.159Z,5.10
